createdAt,value
2018-05-02T00:02:09.166Z,3.83
2018-05-02T00:04:36.792Z,4.03
2018-05-02T00:07:04.311Z,4.43
2018-05-02T00:09:31.845Z,4.37
2018-05-02T00:11:59.375Z,4.10
2018-05-02T00:14:26.892Z,4.30
2018-05-02T00:16:54.490Z,4.63
2018-05-02T00:19:22.011Z,4.50
2018-05-02T00:21:49.523Z,4.27
2018-05-02T00:24:17.036Z,4.37
2018-05-02T00:26:44.560Z,4.10
2018-05-02T00:29:12.185Z,3.83
2018-05-02T00:31:39.708Z,4.23
2018-05-02T00:34:07.229Z,3.90
2018-05-02T00:36:34.765Z,3.90
2018-05-02T00:39:02.284Z,4.40
2018-05-02T00:41:29.816Z,3.87
2018-05-02T00:43:57.451Z,3.83
2018-05-02T00:46:25.010Z,4.40
2018-05-02T00:49:04.347Z,4.57
2018-05-02T00:51:31.868Z,4.17
2018-05-02T00:53:59.424Z,4.60
2018-05-02T00:56:26.957Z,5.03
2018-05-02T00:58:54.551Z,4.50
2018-05-02T01:01:22.069Z,4.43
2018-05-02T01:03:49.589Z,3.97
2018-05-02T01:06:17.117Z,4.53
2018-05-02T01:08:44.639Z,4.60
2018-05-02T01:11:12.166Z,3.93
2018-05-02T01:13:39.694Z,5.13
2018-05-02T01:16:07.226Z,4.70
2018-05-02T01:18:34.728Z,5.07
2018-05-02T01:21:02.247Z,4.30
2018-05-02T01:23:29.760Z,3.97
2018-05-02T01:25:57.274Z,4.60
2018-05-02T01:28:24.789Z,4.53
2018-05-02T01:30:52.304Z,4.80
2018-05-02T01:33:19.823Z,4.43
2018-05-02T01:35:47.335Z,3.97
2018-05-02T01:38:14.853Z,4.73
2018-05-02T01:40:42.360Z,4.47
2018-05-02T01:43:09.874Z,3.87
2018-05-02T01:45:37.387Z,4.73
2018-05-02T01:48:04.900Z,5.03
2018-05-02T01:50:32.424Z,4.40
2018-05-02T01:52:59.940Z,4.43
2018-05-02T01:55:27.472Z,4.03
2018-05-02T01:57:55.005Z,4.47
2018-05-02T02:00:22.531Z,5.13
2018-05-02T02:02:50.118Z,3.83
2018-05-02T02:05:17.679Z,4.80
2018-05-02T02:07:45.196Z,4.73
2018-05-02T02:10:12.719Z,4.70
2018-05-02T02:12:40.247Z,4.40
2018-05-02T02:15:07.755Z,4.47
2018-05-02T02:17:35.265Z,4.90
2018-05-02T02:20:02.777Z,4.83
2018-05-02T02:22:30.297Z,5.10
2018-05-02T02:24:57.820Z,4.60
2018-05-02T02:27:25.340Z,4.93
2018-05-02T02:29:52.885Z,4.43
2018-05-02T02:32:20.434Z,5.00
2018-05-02T02:34:47.964Z,5.20
2018-05-02T02:37:15.549Z,4.53
2018-05-02T02:39:43.074Z,5.37
2018-05-02T02:42:10.659Z,4.87
2018-05-02T02:44:38.167Z,5.43
2018-05-02T02:47:05.676Z,4.80
2018-05-02T02:49:33.234Z,4.60
2018-05-02T02:52:00.802Z,5.17
2018-05-02T02:54:28.321Z,5.10
2018-05-02T02:56:55.851Z,4.77
2018-05-02T02:59:23.512Z,4.93
2018-05-02T03:01:51.120Z,4.37
2018-05-02T03:04:18.709Z,4.97
2018-05-02T03:06:46.276Z,4.43
2018-05-02T03:09:13.830Z,4.67
2018-05-02T03:11:41.361Z,4.50
2018-05-02T03:14:08.955Z,5.27
2018-05-02T03:16:36.481Z,5.10
2018-05-02T03:19:04.074Z,4.87
2018-05-02T03:21:31.598Z,5.10
2018-05-02T03:23:59.124Z,4.30
2018-05-02T03:26:26.756Z,4.90
2018-05-02T03:28:54.268Z,4.23
2018-05-02T03:31:21.791Z,4.80
2018-05-02T03:33:49.429Z,4.23
2018-05-02T03:36:16.948Z,4.53
2018-05-02T03:38:44.466Z,4.60
2018-05-02T03:41:11.976Z,4.30
2018-05-02T03:43:39.690Z,4.70
2018-05-02T03:46:07.218Z,4.33
2018-05-02T03:48:34.790Z,4.60
2018-05-02T03:51:02.354Z,5.00
2018-05-02T03:53:29.879Z,4.40
2018-05-02T03:55:57.474Z,4.60
2018-05-02T03:58:25.003Z,4.60
2018-05-02T04:01:04.376Z,5.00
2018-05-02T04:03:43.708Z,4.10
2018-05-02T04:06:23.089Z,4.63
2018-05-02T04:08:51.446Z,4.73
2018-05-02T04:11:18.964Z,4.73
2018-05-02T04:13:46.479Z,4.87
2018-05-02T04:16:14.102Z,4.87
2018-05-02T04:18:41.691Z,4.70
2018-05-02T04:21:09.163Z,4.77
2018-05-02T04:23:36.675Z,5.00
2018-05-02T04:26:04.257Z,5.20
2018-05-02T04:28:31.756Z,5.20
2018-05-02T04:30:59.268Z,5.13
2018-05-02T04:33:26.776Z,4.83
2018-05-02T04:35:54.288Z,5.07
2018-05-02T04:38:21.808Z,5.53
2018-05-02T04:40:49.320Z,5.40
2018-05-02T04:43:16.835Z,5.40
2018-05-02T04:45:44.414Z,5.33
2018-05-02T04:48:11.931Z,5.77
2018-05-02T04:50:39.472Z,6.40
2018-05-02T04:53:07.019Z,5.83
2018-05-02T04:55:34.549Z,7.07
2018-05-02T04:58:02.068Z,6.37
2018-05-02T05:00:29.673Z,7.37
2018-05-02T05:02:57.200Z,8.17
2018-05-02T05:05:24.722Z,8.13
2018-05-02T05:07:52.246Z,7.63
2018-05-02T05:10:19.773Z,7.40
2018-05-02T05:12:47.297Z,7.63
2018-05-02T05:15:14.933Z,7.17
2018-05-02T05:17:42.458Z,8.13
2018-05-02T05:20:09.980Z,8.30
2018-05-02T05:22:37.604Z,8.67
2018-05-02T05:25:05.164Z,9.23
2018-05-02T05:27:32.697Z,8.23
2018-05-02T05:30:00.291Z,8.40
2018-05-02T05:32:27.817Z,7.77
2018-05-02T05:34:55.342Z,8.10
2018-05-02T05:37:22.969Z,8.03
2018-05-02T05:39:50.532Z,7.00
2018-05-02T05:42:18.062Z,7.03
2018-05-02T05:44:45.649Z,7.40
2018-05-02T05:47:13.177Z,8.43
2018-05-02T05:49:40.724Z,7.37
2018-05-02T05:52:08.336Z,7.00
2018-05-02T05:54:35.867Z,6.33
2018-05-02T05:57:03.385Z,6.97
2018-05-02T05:59:30.993Z,6.90
2018-05-02T06:01:58.518Z,6.90
2018-05-02T06:04:26.073Z,5.80
2018-05-02T06:06:53.691Z,6.20
2018-05-02T06:09:21.255Z,6.53
2018-05-02T06:11:48.780Z,5.47
2018-05-02T06:14:16.299Z,6.20
2018-05-02T06:16:43.831Z,6.10
2018-05-02T06:19:11.361Z,6.30
2018-05-02T06:21:38.951Z,6.17
2018-05-02T06:24:06.511Z,6.13
2018-05-02T06:26:34.025Z,6.10
2018-05-02T06:29:01.558Z,6.43
2018-05-02T06:31:29.082Z,5.77
2018-05-02T06:33:56.613Z,5.90
2018-05-02T06:36:24.137Z,5.47
2018-05-02T06:38:51.769Z,5.77
2018-05-02T06:41:19.292Z,5.53
2018-05-02T06:43:46.812Z,5.27
2018-05-02T06:46:14.345Z,5.57
2018-05-02T06:48:41.900Z,5.80
2018-05-02T06:51:09.437Z,5.70
2018-05-02T06:53:36.976Z,5.47
2018-05-02T06:56:04.506Z,5.93
2018-05-02T06:58:32.037Z,5.47
2018-05-02T07:00:59.570Z,5.13
2018-05-02T07:03:27.163Z,5.60
2018-05-02T07:05:54.690Z,4.83
2018-05-02T07:08:22.208Z,5.20
2018-05-02T07:10:49.722Z,5.37
2018-05-02T07:13:17.271Z,5.40
2018-05-02T07:15:44.813Z,4.80
2018-05-02T07:18:12.372Z,5.40
2018-05-02T07:20:39.988Z,5.40
2018-05-02T07:23:07.535Z,5.13
2018-05-02T07:25:35.052Z,4.77
2018-05-02T07:28:02.585Z,5.40
2018-05-02T07:30:30.118Z,5.13
2018-05-02T07:32:57.758Z,4.80
2018-05-02T07:35:25.189Z,4.87
2018-05-02T07:37:52.743Z,4.93
2018-05-02T07:40:20.278Z,5.53
2018-05-02T07:42:47.811Z,5.63
2018-05-02T07:45:15.343Z,5.07
2018-05-02T07:47:42.880Z,5.60
2018-05-02T07:50:10.419Z,5.43
2018-05-02T07:52:37.948Z,5.57
2018-05-02T07:55:05.480Z,5.00
2018-05-02T07:57:33.008Z,4.43
2018-05-02T08:00:00.532Z,5.10
2018-05-02T08:02:28.064Z,5.60
2018-05-02T08:04:55.600Z,5.03
2018-05-02T08:07:23.137Z,5.17
2018-05-02T08:09:50.669Z,5.13
2018-05-02T08:12:18.189Z,4.63
2018-05-02T08:14:45.711Z,5.00
2018-05-02T08:17:13.246Z,5.43
2018-05-02T08:19:40.772Z,5.63
2018-05-02T08:22:08.296Z,5.70
2018-05-02T08:24:35.819Z,4.67
2018-05-02T08:27:03.352Z,5.23
2018-05-02T08:29:30.880Z,4.97
2018-05-02T08:31:58.408Z,4.63
2018-05-02T08:34:25.934Z,4.73
2018-05-02T08:36:53.453Z,4.70
2018-05-02T08:39:20.967Z,4.47
2018-05-02T08:41:48.476Z,4.50
2018-05-02T08:44:15.995Z,4.27
2018-05-02T08:46:43.511Z,4.80
2018-05-02T08:49:11.044Z,4.67
2018-05-02T08:51:38.577Z,4.50
2018-05-02T08:54:06.101Z,4.80
2018-05-02T08:56:33.618Z,4.17
2018-05-02T08:59:01.151Z,4.17
2018-05-02T09:01:28.668Z,4.00
2018-05-02T09:03:56.192Z,4.20
2018-05-02T09:06:23.724Z,4.63
2018-05-02T09:08:51.284Z,3.93
2018-05-02T09:11:18.782Z,4.30
2018-05-02T09:13:46.311Z,3.80
2018-05-02T09:16:13.833Z,4.10
2018-05-02T09:18:41.352Z,4.10
2018-05-02T09:21:08.913Z,3.30
2018-05-02T09:23:36.443Z,3.47
2018-05-02T09:26:03.963Z,3.97
2018-05-02T09:28:31.483Z,3.50
2018-05-02T09:30:59.005Z,3.53
2018-05-02T09:33:26.516Z,3.50
2018-05-02T09:35:54.035Z,3.70
2018-05-02T09:38:21.635Z,5.00
2018-05-02T09:40:49.127Z,3.60
2018-05-02T09:43:16.649Z,2.90
2018-05-02T09:45:44.167Z,3.33
2018-05-02T09:48:11.711Z,2.80
2018-05-02T09:50:39.229Z,2.97
2018-05-02T09:53:06.749Z,2.77
2018-05-02T09:55:34.274Z,2.57
2018-05-02T09:58:01.801Z,2.60
2018-05-02T10:00:30.253Z,2.90
2018-05-02T10:02:57.772Z,3.20
2018-05-02T10:05:25.292Z,2.80
2018-05-02T10:07:52.815Z,3.20
2018-05-02T10:10:20.328Z,2.80
2018-05-02T10:12:47.948Z,2.97
2018-05-02T10:15:15.415Z,2.80
2018-05-02T10:17:42.932Z,3.20
2018-05-02T10:20:10.462Z,3.40
2018-05-02T10:22:37.985Z,3.03
2018-05-02T10:25:05.499Z,2.80
2018-05-02T10:27:33.029Z,2.87
2018-05-02T10:30:00.560Z,2.97
2018-05-02T10:32:28.097Z,3.30
2018-05-02T10:34:55.607Z,2.50
2018-05-02T10:37:23.130Z,2.93
2018-05-02T10:39:50.654Z,2.70
2018-05-02T10:42:18.179Z,2.83
2018-05-02T10:44:45.691Z,2.97
2018-05-02T10:47:13.217Z,3.10
2018-05-02T10:49:40.744Z,3.00
2018-05-02T10:52:08.269Z,2.83
2018-05-02T10:54:35.784Z,3.07
2018-05-02T10:57:03.317Z,2.80
2018-05-02T10:59:30.900Z,3.30
2018-05-02T11:01:58.406Z,2.97
2018-05-02T11:04:25.920Z,3.00
2018-05-02T11:06:53.450Z,3.13
2018-05-02T11:09:20.986Z,3.80
2018-05-02T11:11:48.505Z,3.93
2018-05-02T11:14:16.036Z,3.43
2018-05-02T11:16:43.621Z,5.90
2018-05-02T11:19:11.152Z,3.20
2018-05-02T11:21:38.662Z,3.00
2018-05-02T11:24:06.198Z,2.73
2018-05-02T11:26:33.749Z,3.03
2018-05-02T11:29:01.255Z,2.30
2018-05-02T11:31:28.771Z,2.10
2018-05-02T11:33:56.306Z,1.90
2018-05-02T11:36:23.837Z,1.97
2018-05-02T11:38:51.347Z,1.90
2018-05-02T11:41:18.957Z,1.90
2018-05-02T11:43:46.481Z,1.60
2018-05-02T11:46:14.100Z,1.90
2018-05-02T11:48:41.616Z,1.80
2018-05-02T11:51:09.148Z,1.70
2018-05-02T11:53:36.688Z,1.87
2018-05-02T11:56:04.207Z,1.83
2018-05-02T11:58:31.731Z,2.00
2018-05-02T12:00:59.276Z,1.70
2018-05-02T12:03:26.903Z,2.03
2018-05-02T12:05:54.377Z,1.30
2018-05-02T12:08:21.910Z,1.50
2018-05-02T12:10:49.442Z,1.50
2018-05-02T12:13:17.028Z,1.83
2018-05-02T12:15:44.553Z,1.47
2018-05-02T12:18:12.080Z,1.80
2018-05-02T12:20:39.605Z,1.80
2018-05-02T12:23:07.128Z,1.73
2018-05-02T12:25:34.653Z,2.50
2018-05-02T12:28:02.186Z,1.93
2018-05-02T12:30:29.704Z,1.90
2018-05-02T12:32:57.236Z,2.23
2018-05-02T12:35:24.839Z,2.07
2018-05-02T12:37:52.303Z,1.93
2018-05-02T12:40:19.836Z,2.33
2018-05-02T12:42:47.354Z,2.70
2018-05-02T12:45:14.863Z,2.40
2018-05-02T12:47:42.375Z,2.70
2018-05-02T12:50:09.883Z,2.87
2018-05-02T12:52:37.421Z,3.47
2018-05-02T12:55:04.949Z,3.47
2018-05-02T12:57:32.463Z,3.57
2018-05-02T12:59:59.972Z,3.60
2018-05-02T13:02:27.527Z,3.60
2018-05-02T13:04:55.025Z,4.00
2018-05-02T13:07:22.550Z,3.40
2018-05-02T13:09:50.080Z,4.30
2018-05-02T13:12:17.612Z,3.13
2018-05-02T13:14:45.137Z,3.57
2018-05-02T13:17:12.668Z,3.83
2018-05-02T13:19:40.194Z,3.33
2018-05-02T13:22:07.750Z,3.83
2018-05-02T13:24:35.278Z,3.27
2018-05-02T13:27:02.803Z,3.97
2018-05-02T13:29:30.323Z,3.77
2018-05-02T13:31:57.880Z,3.57
2018-05-02T13:34:25.417Z,3.40
2018-05-02T13:36:52.939Z,3.63
2018-05-02T13:39:20.463Z,3.60
2018-05-02T13:41:48.023Z,3.40
2018-05-02T13:44:15.597Z,2.60
2018-05-02T13:46:43.161Z,3.13
2018-05-02T13:49:10.759Z,2.87
2018-05-02T13:51:38.301Z,2.60
2018-05-02T13:54:05.828Z,2.50
2018-05-02T13:56:33.480Z,2.47
2018-05-02T13:59:01.038Z,2.40
2018-05-02T14:01:28.576Z,2.27
2018-05-02T14:03:56.105Z,2.43
2018-05-02T14:06:23.698Z,2.20
2018-05-02T14:08:51.326Z,2.07
2018-05-02T14:11:18.896Z,1.90
2018-05-02T14:13:46.450Z,1.70
2018-05-02T14:16:13.996Z,1.90
2018-05-02T14:18:41.521Z,1.93
2018-05-02T14:21:09.041Z,1.70
2018-05-02T14:23:36.557Z,2.00
2018-05-02T14:26:04.075Z,1.90
2018-05-02T14:28:31.629Z,1.90
2018-05-02T14:30:59.234Z,1.60
2018-05-02T14:33:26.807Z,1.97
2018-05-02T14:35:54.353Z,1.70
2018-05-02T14:38:22.101Z,2.07
2018-05-02T14:40:49.598Z,2.13
2018-05-02T14:43:17.150Z,1.80
2018-05-02T14:45:44.680Z,1.70
2018-05-02T14:48:12.203Z,1.80
2018-05-02T14:50:39.733Z,1.80
2018-05-02T14:53:07.258Z,2.00
2018-05-02T14:55:35.700Z,1.90
2018-05-02T14:58:03.228Z,1.90
2018-05-02T15:00:30.758Z,2.43
2018-05-02T15:02:58.485Z,1.67
2018-05-02T15:05:26.059Z,1.80
2018-05-02T15:07:53.602Z,1.80
2018-05-02T15:10:21.154Z,2.03
2018-05-02T15:12:48.679Z,1.80
2018-05-02T15:15:16.193Z,1.57
2018-05-02T15:17:43.715Z,1.73
2018-05-02T15:20:11.288Z,2.00
2018-05-02T15:22:38.794Z,1.90
2018-05-02T15:25:06.317Z,2.40
2018-05-02T15:27:33.833Z,2.17
2018-05-02T15:30:01.377Z,2.20
2018-05-02T15:32:28.985Z,2.00
2018-05-02T15:34:56.455Z,2.33
2018-05-02T15:37:23.971Z,1.90
2018-05-02T15:39:51.486Z,2.10
2018-05-02T15:42:19.026Z,2.43
2018-05-02T15:44:46.543Z,2.50
2018-05-02T15:47:14.063Z,2.20
2018-05-02T15:49:41.585Z,2.23
2018-05-02T15:52:09.115Z,1.80
2018-05-02T15:54:36.650Z,1.90
2018-05-02T15:57:04.171Z,2.27
2018-05-02T15:59:31.692Z,2.17
2018-05-02T16:01:59.333Z,2.23
2018-05-02T16:04:26.860Z,2.30
2018-05-02T16:06:54.377Z,2.50
2018-05-02T16:09:21.906Z,3.00
2018-05-02T16:11:49.429Z,2.60
2018-05-02T16:14:16.947Z,2.40
2018-05-02T16:16:44.486Z,3.70
2018-05-02T16:19:12.010Z,3.90
2018-05-02T16:21:39.532Z,2.70
2018-05-02T16:24:07.073Z,2.80
2018-05-02T16:26:34.584Z,2.30
2018-05-02T16:29:02.104Z,2.33
2018-05-02T16:31:29.622Z,2.50
2018-05-02T16:33:57.144Z,2.47
2018-05-02T16:36:24.675Z,2.60
2018-05-02T16:38:52.197Z,2.43
2018-05-02T16:41:19.704Z,2.73
2018-05-02T16:43:47.233Z,2.73
2018-05-02T16:46:14.746Z,2.60
2018-05-02T16:48:42.280Z,2.40
2018-05-02T16:51:09.813Z,2.60
2018-05-02T16:53:37.338Z,3.30
2018-05-02T16:56:04.855Z,2.80
2018-05-02T16:58:32.388Z,2.63
2018-05-02T17:00:59.935Z,3.00
2018-05-02T17:03:27.455Z,2.50
2018-05-02T17:05:54.975Z,2.63
2018-05-02T17:08:22.521Z,2.90
2018-05-02T17:10:50.044Z,2.77
2018-05-02T17:13:17.570Z,2.40
2018-05-02T17:15:45.088Z,2.70
2018-05-02T17:18:12.647Z,3.00
2018-05-02T17:20:40.160Z,2.70
2018-05-02T17:23:07.680Z,2.70
2018-05-02T17:25:35.199Z,3.07
2018-05-02T17:28:02.729Z,3.00
2018-05-02T17:30:30.261Z,3.10
2018-05-02T17:32:57.788Z,3.30
2018-05-02T17:35:25.310Z,3.20
2018-05-02T17:37:52.836Z,3.00
2018-05-02T17:40:20.351Z,3.27
2018-05-02T17:42:47.869Z,3.23
2018-05-02T17:45:15.382Z,2.90
2018-05-02T17:47:42.900Z,3.23
2018-05-02T17:50:10.431Z,3.37
2018-05-02T17:52:37.953Z,3.13
2018-05-02T17:55:05.484Z,3.27
2018-05-02T17:57:32.995Z,3.57
2018-05-02T18:00:00.520Z,3.30
2018-05-02T18:02:28.042Z,3.10
2018-05-02T18:04:55.569Z,3.37
2018-05-02T18:07:23.080Z,3.23
2018-05-02T18:09:50.602Z,2.90
2018-05-02T18:12:18.130Z,3.57
2018-05-02T18:14:45.647Z,3.37
2018-05-02T18:17:13.168Z,3.37
2018-05-02T18:19:40.675Z,3.30
2018-05-02T18:22:08.186Z,3.07
2018-05-02T18:24:35.721Z,3.63
2018-05-02T18:27:03.242Z,3.70
2018-05-02T18:29:30.763Z,3.87
2018-05-02T18:31:58.279Z,3.40
2018-05-02T18:34:25.800Z,3.30
2018-05-02T18:36:53.324Z,3.60
2018-05-02T18:39:20.844Z,3.70
2018-05-02T18:41:48.428Z,3.47
2018-05-02T18:44:15.982Z,3.97
2018-05-02T18:46:43.561Z,3.70
2018-05-02T18:49:11.089Z,3.93
2018-05-02T18:51:38.606Z,4.10
2018-05-02T18:54:06.130Z,4.47
2018-05-02T18:56:33.652Z,3.73
2018-05-02T18:59:01.294Z,4.13
2018-05-02T19:01:28.826Z,4.07
2018-05-02T19:03:56.386Z,3.90
2018-05-02T19:06:23.890Z,3.60
2018-05-02T19:08:51.501Z,3.63
2018-05-02T19:11:19.017Z,3.33
2018-05-02T19:13:52.064Z,3.57
2018-05-02T19:16:19.593Z,3.67
2018-05-02T19:18:52.826Z,3.60
2018-05-02T19:21:20.356Z,3.67
2018-05-02T19:23:47.897Z,3.30
2018-05-02T19:26:21.147Z,3.17
2018-05-02T19:28:48.668Z,3.50
2018-05-02T19:31:21.716Z,3.97
2018-05-02T19:33:53.063Z,3.33
2018-05-02T19:36:20.597Z,3.00
2018-05-02T19:38:48.125Z,3.50
2018-05-02T19:41:21.272Z,4.10
2018-05-02T19:43:54.354Z,3.60
2018-05-02T19:46:21.864Z,3.77
2018-05-02T19:48:49.440Z,3.70
2018-05-02T19:51:22.596Z,3.83
2018-05-02T19:53:50.077Z,3.83
2018-05-02T19:56:17.591Z,3.80
2018-05-02T19:58:45.128Z,3.77
2018-05-02T20:01:18.272Z,3.63
2018-05-02T20:03:45.801Z,3.90
2018-05-02T20:06:13.335Z,3.80
2018-05-02T20:08:46.449Z,3.30
2018-05-02T20:11:19.727Z,3.23
2018-05-02T20:13:52.929Z,3.30
2018-05-02T20:16:20.456Z,3.57
2018-05-02T20:18:47.973Z,3.97
2018-05-02T20:21:15.491Z,4.20
2018-05-02T20:23:43.018Z,3.73
2018-05-02T20:26:10.536Z,4.47
2018-05-02T20:28:38.064Z,3.80
2018-05-02T20:31:05.593Z,4.10
2018-05-02T20:33:33.113Z,3.27
2018-05-02T20:36:00.639Z,3.80
2018-05-02T20:38:28.174Z,3.97
2018-05-02T20:40:55.688Z,4.27
2018-05-02T20:43:23.221Z,3.50
2018-05-02T20:45:50.755Z,3.53
2018-05-02T20:48:18.283Z,3.77
2018-05-02T20:50:45.797Z,4.17
2018-05-02T20:53:13.329Z,3.90
2018-05-02T20:55:40.850Z,5.63
2018-05-02T20:58:08.363Z,4.47
2018-05-02T21:00:35.887Z,4.57
2018-05-02T21:03:03.420Z,4.77
2018-05-02T21:05:30.935Z,4.63
2018-05-02T21:07:58.465Z,4.80
2018-05-02T21:10:25.992Z,4.53
2018-05-02T21:12:53.504Z,3.90
2018-05-02T21:15:21.024Z,3.80
2018-05-02T21:17:48.536Z,3.90
2018-05-02T21:20:16.052Z,3.30
2018-05-02T21:22:43.675Z,4.07
2018-05-02T21:25:11.191Z,4.60
2018-05-02T21:27:38.713Z,4.90
2018-05-02T21:30:06.251Z,4.57
2018-05-02T21:32:33.782Z,4.60
2018-05-02T21:35:01.301Z,5.33
2018-05-02T21:37:28.835Z,5.47
2018-05-02T21:39:56.363Z,4.57
2018-05-02T21:42:23.914Z,4.83
2018-05-02T21:44:51.429Z,4.70
2018-05-02T21:47:18.964Z,5.03
2018-05-02T21:49:46.499Z,4.87
2018-05-02T21:52:14.024Z,5.43
2018-05-02T21:54:41.544Z,5.23
2018-05-02T21:57:09.064Z,5.50
2018-05-02T21:59:36.584Z,5.47
2018-05-02T22:02:04.104Z,5.80
2018-05-02T22:04:31.679Z,5.13
2018-05-02T22:06:59.221Z,5.90
2018-05-02T22:09:26.741Z,5.20
2018-05-02T22:11:54.261Z,5.30
2018-05-02T22:14:21.797Z,5.37
2018-05-02T22:16:49.319Z,5.07
2018-05-02T22:19:16.849Z,5.10
2018-05-02T22:21:44.409Z,5.30
2018-05-02T22:24:11.927Z,5.13
2018-05-02T22:26:39.448Z,5.37
2018-05-02T22:29:06.979Z,5.10
2018-05-02T22:31:34.500Z,5.33
2018-05-02T22:34:02.032Z,5.57
2018-05-02T22:36:29.577Z,5.13
2018-05-02T22:38:57.100Z,5.67
2018-05-02T22:41:24.624Z,5.33
2018-05-02T22:43:52.148Z,5.70
2018-05-02T22:46:19.656Z,5.30
2018-05-02T22:48:47.205Z,5.97
2018-05-02T22:51:14.732Z,5.47
2018-05-02T22:53:42.296Z,5.80
2018-05-02T22:56:09.807Z,5.33
2018-05-02T22:58:37.331Z,5.23
2018-05-02T23:01:04.863Z,5.00
2018-05-02T23:03:32.384Z,5.30
2018-05-02T23:05:59.942Z,5.40
2018-05-02T23:08:27.452Z,5.53
2018-05-02T23:10:54.963Z,6.00
2018-05-02T23:13:22.483Z,5.70
2018-05-02T23:15:50.021Z,5.80
2018-05-02T23:18:17.633Z,5.50
2018-05-02T23:20:45.086Z,5.60
2018-05-02T23:23:12.607Z,5.60
2018-05-02T23:25:40.119Z,5.40
2018-05-02T23:28:07.633Z,5.77
2018-05-02T23:30:35.155Z,5.40
2018-05-02T23:33:02.678Z,5.40
2018-05-02T23:35:30.200Z,5.17
2018-05-02T23:37:57.728Z,5.60
2018-05-02T23:40:25.242Z,5.33
2018-05-02T23:42:52.756Z,4.80
2018-05-02T23:45:20.287Z,5.83
2018-05-02T23:47:47.796Z,5.80
2018-05-02T23:50:15.324Z,6.40
2018-05-02T23:52:42.849Z,6.30
2018-05-02T23:55:10.372Z,5.47
2018-05-02T23:57:37.904Z,6.17
